Time;durP1;ratioP1;P1;durP2;ratioP2;P2;SDS_P1;SDS_P2;PMS_P1;PMS_P2;Temp;Humidity;BMP_temperature;BMP_pressure;BME280_temperature;BME280_humidity;BME280_pressure;Samples;Min_cycle;Max_cycle;Signal;HPM_P1;HPM_P2
2021/10/04 00:00:21;;;;;;;1.87;0.97;;;12.80;99.90;;;;;;5025434;28;20314;-38
2021/10/04 00:02:46;;;;;;;1.20;0.80;;;12.90;99.90;;;;;;5027125;28;20183;-38
2021/10/04 00:05:12;;;;;;;1.97;0.90;;;12.90;99.90;;;;;;5027911;28;20193;-38
2021/10/04 00:07:38;;;;;;;2.17;0.70;;;12.90;99.90;;;;;;5028152;28;20194;-38
2021/10/04 00:10:11;;;;;;;6.50;1.10;;;12.90;99.90;;;;;;5027910;28;20432;-38
2021/10/04 00:12:36;;;;;;;3.53;1.13;;;12.90;99.90;;;;;;5020130;28;20667;-38
2021/10/04 00:15:04;;;;;;;1.67;0.73;;;12.80;99.90;;;;;;5023967;28;20422;-38
2021/10/04 00:17:29;;;;;;;1.30;1.00;;;12.80;99.90;;;;;;5027258;28;20673;-38
2021/10/04 00:19:55;;;;;;;1.60;1.30;;;12.80;99.90;;;;;;5027811;28;20473;-38
2021/10/04 00:22:21;;;;;;;4.30;0.93;;;12.80;99.90;;;;;;5037561;28;20419;-38
2021/10/04 00:24:46;;;;;;;1.23;0.90;;;12.70;99.90;;;;;;5046523;28;20190;-38
2021/10/04 00:27:12;;;;;;;4.23;1.30;;;12.70;99.90;;;;;;5037898;28;20290;-38
2021/10/04 00:29:38;;;;;;;3.70;1.30;;;12.60;99.90;;;;;;5023696;28;20201;-38
2021/10/04 00:32:04;;;;;;;2.30;1.07;;;12.60;99.90;;;;;;5026995;28;20573;-38
2021/10/04 00:34:29;;;;;;;1.93;0.90;;;12.70;99.90;;;;;;5027166;28;20222;-40
2021/10/04 00:36:55;;;;;;;1.37;0.80;;;12.60;99.90;;;;;;5027117;28;20460;-38
2021/10/04 00:39:21;;;;;;;1.37;0.90;;;12.70;99.90;;;;;;5027442;28;20218;-38
2021/10/04 00:41:47;;;;;;;1.43;0.80;;;12.70;99.90;;;;;;5025998;28;20187;-38
2021/10/04 00:44:13;;;;;;;1.80;0.80;;;12.80;99.90;;;;;;5015866;28;20424;-38
2021/10/04 00:46:38;;;;;;;1.40;0.73;;;12.70;99.90;;;;;;5017101;28;20198;-39
2021/10/04 00:49:05;;;;;;;3.40;1.03;;;12.70;99.90;;;;;;5027338;28;20426;-38
2021/10/04 00:51:30;;;;;;;2.23;0.80;;;12.70;99.90;;;;;;5027199;28;20195;-38
2021/10/04 00:53:56;;;;;;;1.73;1.00;;;12.70;99.90;;;;;;5026248;28;20425;-38
2021/10/04 00:56:23;;;;;;;2.50;0.90;;;12.70;99.90;;;;;;5026888;28;20253;-39
2021/10/04 00:58:50;;;;;;;1.73;0.90;;;12.70;99.90;;;;;;5017028;28;20486;-38
2021/10/04 01:01:16;;;;;;;1.43;0.90;;;12.80;99.90;;;;;;5026753;28;20433;-40
2021/10/04 01:03:44;;;;;;;3.37;0.97;;;12.70;99.90;;;;;;5025948;28;20417;-38
2021/10/04 01:06:09;;;;;;;1.90;1.10;;;12.70;99.90;;;;;;5026904;28;20431;-39
2021/10/04 01:08:35;;;;;;;3.07;0.90;;;12.70;99.90;;;;;;5026551;28;20425;-38
2021/10/04 01:11:01;;;;;;;1.70;0.77;;;12.70;99.90;;;;;;5026935;28;20198;-38
2021/10/04 01:13:27;;;;;;;2.07;1.00;;;12.70;99.90;;;;;;5016477;28;20225;-38
2021/10/04 01:15:53;;;;;;;1.80;1.10;;;12.70;99.90;;;;;;5026584;28;20966;-38
2021/10/04 01:18:18;;;;;;;1.30;1.00;;;12.80;99.90;;;;;;5026451;28;20190;-39
2021/10/04 01:20:44;;;;;;;2.33;1.20;;;12.70;99.90;;;;;;5026495;28;20218;-38
2021/10/04 01:23:10;;;;;;;5.37;1.13;;;12.70;99.90;;;;;;5042649;28;20245;-38
2021/10/04 01:25:35;;;;;;;2.87;1.10;;;12.60;99.90;;;;;;5046780;28;20239;-38
2021/10/04 01:28:02;;;;;;;2.10;1.17;;;12.60;99.90;;;;;;5033919;28;20186;-38
2021/10/04 01:30:31;;;;;;;1.40;1.10;;;12.60;99.90;;;;;;5025282;28;20193;-38
2021/10/04 01:32:57;;;;;;;2.30;1.10;;;12.60;99.90;;;;;;5026052;28;20447;-43
2021/10/04 01:35:24;;;;;;;0.90;0.83;;;12.60;99.90;;;;;;5026324;28;20882;-38
2021/10/04 01:37:50;;;;;;;2.70;0.93;;;12.60;99.90;;;;;;5025813;28;20429;-41
2021/10/04 01:40:17;;;;;;;2.00;1.00;;;12.60;99.90;;;;;;5026326;28;20981;-38
2021/10/04 01:42:43;;;;;;;1.77;1.03;;;12.60;99.90;;;;;;5019996;28;20521;-38
2021/10/04 01:45:19;;;;;;;2.30;1.40;;;12.60;99.90;;;;;;5016396;28;20920;-38
2021/10/04 01:47:45;;;;;;;1.40;0.70;;;12.60;99.90;;;;;;5023144;28;20780;-38
2021/10/04 01:50:11;;;;;;;2.60;1.10;;;12.70;99.90;;;;;;5026090;28;20519;-40
2021/10/04 01:52:39;;;;;;;1.27;0.97;;;12.60;99.90;;;;;;5026135;28;20494;-38
2021/10/04 01:55:06;;;;;;;0.90;0.80;;;12.60;99.90;;;;;;5025837;28;20832;-38
2021/10/04 01:57:32;;;;;;;3.40;1.30;;;12.50;99.90;;;;;;5023461;28;20498;-38
2021/10/04 02:00:01;;;;;;;2.43;1.20;;;12.60;99.90;;;;;;5019410;28;20509;-38
2021/10/04 02:02:28;;;;;;;1.40;0.80;;;12.60;99.90;;;;;;5025728;28;20515;-38
2021/10/04 02:04:54;;;;;;;2.07;0.90;;;12.60;99.90;;;;;;5025504;28;20417;-38
2021/10/04 02:07:20;;;;;;;1.13;0.90;;;12.60;99.90;;;;;;5025572;28;20486;-38
2021/10/04 02:09:47;;;;;;;1.00;0.90;;;12.60;99.90;;;;;;5025747;28;20955;-39
2021/10/04 02:12:15;;;;;;;1.53;1.07;;;12.60;99.90;;;;;;5025636;28;20194;-39
2021/10/04 02:14:40;;;;;;;1.80;0.90;;;12.50;99.90;;;;;;5011984;28;20429;-41
2021/10/04 02:17:06;;;;;;;1.47;0.80;;;12.50;99.90;;;;;;5025139;28;20547;-39
2021/10/04 02:19:32;;;;;;;3.23;1.50;;;12.60;99.90;;;;;;5025651;28;20309;-40
2021/10/04 02:22:00;;;;;;;0.90;0.90;;;12.60;99.90;;;;;;5024557;28;20253;-38
2021/10/04 02:24:27;;;;;;;1.77;0.90;;;12.60;99.90;;;;;;5025030;28;20734;-40
2021/10/04 02:26:52;;;;;;;2.07;1.00;;;12.30;99.90;;;;;;5025773;28;20865;-38
2021/10/04 02:29:18;;;;;;;2.20;0.80;;;12.50;99.90;;;;;;5020951;28;20520;-38
2021/10/04 02:31:44;;;;;;;1.13;0.80;;;12.50;99.90;;;;;;5025657;28;20441;-38
2021/10/04 02:34:10;;;;;;;2.30;1.20;;;12.40;99.90;;;;;;5017691;28;20565;-39
2021/10/04 02:36:36;;;;;;;1.70;0.77;;;12.50;99.90;;;;;;5026065;28;20195;-38
2021/10/04 02:39:03;;;;;;;2.00;1.10;;;12.50;99.90;;;;;;5024880;28;20465;-38
2021/10/04 02:41:29;;;;;;;1.17;0.80;;;12.50;99.90;;;;;;5025534;28;20186;-38
2021/10/04 02:43:55;;;;;;;1.33;0.73;;;12.50;99.90;;;;;;5016174;28;20425;-38
2021/10/04 02:46:21;;;;;;;1.00;0.90;;;12.50;99.90;;;;;;5023049;28;20431;-38
2021/10/04 02:48:47;;;;;;;1.10;1.00;;;12.40;99.90;;;;;;5028321;28;20190;-40
2021/10/04 02:51:13;;;;;;;0.90;0.80;;;12.40;99.90;;;;;;5029430;28;20836;-38
2021/10/04 02:53:38;;;;;;;1.73;1.03;;;12.40;99.90;;;;;;5028341;28;20277;-38
2021/10/04 02:56:05;;;;;;;2.27;1.00;;;12.40;99.90;;;;;;5029417;28;20278;-38
2021/10/04 02:58:32;;;;;;;0.97;0.87;;;12.40;99.90;;;;;;5022244;28;20684;-39
2021/10/04 03:00:57;;;;;;;3.33;0.93;;;12.40;99.90;;;;;;5025172;28;20512;-38
2021/10/04 03:03:23;;;;;;;1.40;0.90;;;12.40;99.90;;;;;;5028345;28;20521;-38
2021/10/04 03:05:49;;;;;;;1.20;0.87;;;12.40;99.90;;;;;;5029101;28;20749;-39
2021/10/04 03:08:14;;;;;;;1.77;1.07;;;12.50;99.90;;;;;;5029165;28;20281;-39
2021/10/04 03:10:40;;;;;;;2.30;1.00;;;12.50;99.90;;;;;;5029153;28;20222;-39
2021/10/04 03:13:06;;;;;;;0.80;0.80;;;12.50;99.90;;;;;;5025755;28;20472;-38
2021/10/04 03:15:32;;;;;;;3.63;0.90;;;12.50;99.90;;;;;;5021203;28;20619;-38
2021/10/04 03:17:58;;;;;;;1.43;1.33;;;12.50;99.90;;;;;;5029047;28;20193;-40
2021/10/04 03:20:24;;;;;;;1.40;0.97;;;12.50;99.90;;;;;;5028767;28;20460;-39
2021/10/04 03:22:49;;;;;;;1.90;1.00;;;12.50;99.90;;;;;;5030840;28;20560;-38
2021/10/04 03:25:15;;;;;;;1.63;0.90;;;12.50;99.90;;;;;;5048618;28;20428;-38
2021/10/04 03:27:43;;;;;;;0.90;0.90;;;12.50;99.90;;;;;;5048719;28;20225;-38
2021/10/04 03:30:09;;;;;;;1.00;0.90;;;12.50;99.90;;;;;;5019790;28;20483;-38
2021/10/04 03:32:36;;;;;;;4.20;1.30;;;12.50;99.90;;;;;;5028203;28;20500;-38
2021/10/04 03:35:03;;;;;;;1.10;1.00;;;12.50;99.90;;;;;;5027333;28;20444;-38
2021/10/04 03:37:29;;;;;;;1.43;1.00;;;12.50;99.90;;;;;;5027879;28;20421;-38
2021/10/04 03:39:55;;;;;;;1.30;0.67;;;12.50;99.90;;;;;;5028695;28;20465;-38
2021/10/04 03:42:20;;;;;;;1.00;0.90;;;12.50;99.90;;;;;;5027001;28;20202;-39
2021/10/04 03:44:46;;;;;;;2.20;1.20;;;12.50;99.90;;;;;;5020499;28;20193;-38
2021/10/04 03:47:12;;;;;;;1.93;1.00;;;12.50;99.90;;;;;;5027203;28;20199;-38
2021/10/04 03:49:37;;;;;;;1.80;0.90;;;12.50;99.90;;;;;;5028578;28;20264;-41
2021/10/04 03:52:03;;;;;;;2.23;1.07;;;12.50;99.90;;;;;;5027918;28;20661;-38
2021/10/04 03:54:29;;;;;;;1.17;0.90;;;12.60;99.90;;;;;;5027705;28;20737;-40
2021/10/04 03:56:55;;;;;;;1.80;0.83;;;12.50;99.90;;;;;;5027987;28;20785;-38
2021/10/04 03:59:21;;;;;;;1.37;0.90;;;12.60;99.90;;;;;;5018677;28;20571;-38
2021/10/04 04:01:46;;;;;;;1.10;1.00;;;12.50;99.90;;;;;;5022027;28;20413;-38
2021/10/04 04:04:12;;;;;;;2.77;1.27;;;12.50;99.90;;;;;;5026018;28;20278;-38
2021/10/04 04:06:38;;;;;;;4.00;1.33;;;12.60;99.90;;;;;;5026655;28;20182;-38
2021/10/04 04:09:03;;;;;;;2.30;1.33;;;12.50;99.90;;;;;;5027741;28;20264;-38
2021/10/04 04:11:29;;;;;;;2.40;1.37;;;12.50;99.90;;;;;;5028081;28;20285;-38
2021/10/04 04:13:55;;;;;;;2.87;1.47;;;12.50;99.90;;;;;;5021400;28;20253;-38
2021/10/04 04:16:20;;;;;;;2.60;1.30;;;12.50;99.90;;;;;;5022815;28;20202;-38
2021/10/04 04:18:46;;;;;;;0.80;0.80;;;12.50;99.90;;;;;;5020497;28;20580;-38
2021/10/04 04:21:12;;;;;;;2.07;0.97;;;12.60;99.90;;;;;;5040900;28;20610;-38
2021/10/04 04:23:37;;;;;;;2.93;1.17;;;12.50;99.90;;;;;;5038991;28;20190;-38
2021/10/04 04:26:03;;;;;;;3.33;1.07;;;12.50;99.90;;;;;;5047619;28;20198;-38
2021/10/04 04:28:29;;;;;;;1.90;1.00;;;12.50;99.90;;;;;;5047114;28;20196;-38
2021/10/04 04:30:55;;;;;;;2.00;1.07;;;12.60;99.90;;;;;;5016159;28;20433;-39
2021/10/04 04:33:20;;;;;;;1.50;1.13;;;12.50;99.90;;;;;;5029191;28;20210;-38
2021/10/04 04:35:46;;;;;;;1.00;0.63;;;12.50;99.90;;;;;;5025957;28;20186;-38
2021/10/04 04:38:12;;;;;;;1.40;1.13;;;12.60;99.90;;;;;;5027713;28;20289;-38
2021/10/04 04:40:38;;;;;;;1.57;0.93;;;12.20;99.90;;;;;;5027556;28;20218;-39
2021/10/04 04:43:03;;;;;;;1.00;0.80;;;12.50;99.90;;;;;;5026687;28;20488;-38
2021/10/04 04:45:29;;;;;;;1.20;1.10;;;12.60;99.90;;;;;;5018615;28;20331;-38
2021/10/04 04:47:55;;;;;;;3.53;1.27;;;12.60;99.90;;;;;;5026058;28;20186;-38
2021/10/04 04:50:21;;;;;;;2.30;1.00;;;12.60;99.90;;;;;;5020126;28;20304;-38
2021/10/04 04:52:47;;;;;;;3.43;1.10;;;12.60;99.90;;;;;;5026685;28;20711;-38
2021/10/04 04:55:12;;;;;;;2.60;1.60;;;12.60;99.90;;;;;;5027015;28;20253;-37
2021/10/04 04:57:38;;;;;;;1.90;1.03;;;12.50;99.90;;;;;;5027140;28;20472;-38
2021/10/04 05:00:08;;;;;;;1.30;1.20;;;12.50;99.90;;;;;;5015839;28;20466;-38
2021/10/04 05:02:36;;;;;;;0.80;0.70;;;12.40;99.90;;;;;;5026357;28;20190;-38
2021/10/04 05:05:06;;;;;;;1.10;1.00;;;12.50;99.90;;;;;;5026681;28;20475;-38
2021/10/04 05:07:32;;;;;;;1.67;0.87;;;12.50;99.90;;;;;;5027024;28;20495;-38
2021/10/04 05:09:58;;;;;;;2.20;0.80;;;12.60;99.90;;;;;;5026722;28;20432;-38
2021/10/04 05:12:24;;;;;;;1.03;0.90;;;12.60;99.90;;;;;;5027016;28;20425;-38
2021/10/04 05:14:49;;;;;;;1.30;0.80;;;12.60;99.90;;;;;;5019878;28;20218;-38
2021/10/04 05:17:15;;;;;;;0.67;0.67;;;12.60;99.90;;;;;;5023679;28;20198;-39
2021/10/04 05:19:41;;;;;;;2.07;0.90;;;12.60;99.90;;;;;;5027818;28;20237;-38
2021/10/04 05:22:06;;;;;;;1.73;1.10;;;12.50;99.90;;;;;;5046682;28;20197;-38
2021/10/04 05:24:32;;;;;;;1.10;0.83;;;12.60;99.90;;;;;;5042004;28;20549;-38
2021/10/04 05:26:58;;;;;;;1.00;1.00;;;12.70;99.90;;;;;;5046469;28;20201;-38
2021/10/04 05:29:24;;;;;;;1.10;1.00;;;12.70;99.90;;;;;;5039509;28;20373;-39
2021/10/04 05:31:50;;;;;;;3.23;1.10;;;12.60;99.90;;;;;;5019826;28;20669;-38
2021/10/04 05:34:15;;;;;;;1.73;1.00;;;12.60;99.90;;;;;;5025413;28;20479;-38
2021/10/04 05:36:41;;;;;;;2.70;1.20;;;12.60;99.90;;;;;;5026513;28;20244;-38
2021/10/04 05:39:06;;;;;;;1.73;0.90;;;12.60;99.90;;;;;;5026565;28;20218;-38
2021/10/04 05:41:32;;;;;;;1.83;1.10;;;12.60;99.90;;;;;;5026777;28;20268;-38
2021/10/04 05:43:58;;;;;;;6.13;1.13;;;12.60;99.90;;;;;;5025745;28;20186;-38
2021/10/04 05:46:23;;;;;;;2.00;1.00;;;12.70;99.90;;;;;;5011979;28;20277;-37
2021/10/04 05:48:49;;;;;;;2.40;1.00;;;12.60;99.90;;;;;;5025942;28;20708;-39
2021/10/04 05:51:15;;;;;;;3.03;1.00;;;12.60;99.90;;;;;;5026374;28;20195;-38
2021/10/04 05:53:41;;;;;;;2.50;1.10;;;12.70;99.90;;;;;;5025323;28;20226;-38
2021/10/04 05:56:06;;;;;;;1.60;1.20;;;12.70;99.90;;;;;;5026345;28;20436;-38
2021/10/04 05:58:32;;;;;;;3.27;0.97;;;12.70;99.90;;;;;;5026160;28;20292;-38
2021/10/04 06:00:58;;;;;;;1.77;1.03;;;12.60;99.90;;;;;;5016359;28;20248;-39
2021/10/04 06:03:23;;;;;;;2.60;1.00;;;12.70;99.90;;;;;;5025069;28;20533;-38
2021/10/04 06:05:49;;;;;;;4.40;1.30;;;12.70;99.90;;;;;;5026119;28;20970;-39
2021/10/04 06:08:15;;;;;;;3.43;1.40;;;12.70;99.90;;;;;;5025857;28;20195;-38
2021/10/04 06:10:41;;;;;;;1.63;1.00;;;12.80;99.90;;;;;;5026073;28;20209;-38
2021/10/04 06:13:07;;;;;;;1.23;0.77;;;12.80;99.90;;;;;;5025395;28;20198;-38
2021/10/04 06:15:32;;;;;;;1.20;0.90;;;12.70;99.90;;;;;;5020028;28;20252;-38
2021/10/04 06:17:58;;;;;;;2.60;1.30;;;12.70;99.90;;;;;;5020030;28;20432;-41
2021/10/04 06:20:24;;;;;;;1.60;1.10;;;12.90;99.90;;;;;;5031853;28;20228;-38
2021/10/04 06:22:50;;;;;;;1.97;1.40;;;12.70;99.90;;;;;;5044549;28;20212;-38
2021/10/04 06:25:17;;;;;;;1.27;0.80;;;12.80;99.90;;;;;;5045295;28;20919;-39
2021/10/04 06:27:49;;;;;;;2.27;0.90;;;12.80;99.90;;;;;;5045870;28;20775;-38
2021/10/04 06:30:16;;;;;;;2.70;1.10;;;12.80;99.90;;;;;;5031595;28;20907;-38
2021/10/04 06:32:42;;;;;;;2.60;1.20;;;12.80;99.90;;;;;;5021180;28;20423;-38
2021/10/04 06:35:08;;;;;;;2.63;1.23;;;12.80;99.90;;;;;;5025770;28;20931;-38
2021/10/04 06:37:34;;;;;;;1.47;1.10;;;12.80;99.90;;;;;;5025322;28;20429;-38
2021/10/04 06:40:00;;;;;;;1.10;1.00;;;12.80;99.90;;;;;;5025976;28;20456;-39
2021/10/04 06:42:25;;;;;;;1.10;0.90;;;12.80;99.90;;;;;;5025454;28;20210;-38
2021/10/04 06:44:54;;;;;;;1.30;1.10;;;12.80;99.90;;;;;;5021499;28;20633;-38
2021/10/04 06:47:20;;;;;;;1.20;1.10;;;12.80;99.90;;;;;;5017063;28;20331;-38
2021/10/04 06:49:46;;;;;;;2.30;0.80;;;12.80;99.90;;;;;;5025678;28;20523;-38
2021/10/04 06:52:12;;;;;;;2.20;0.83;;;12.80;99.90;;;;;;5025480;28;20213;-38
2021/10/04 06:54:37;;;;;;;2.10;1.30;;;12.90;99.90;;;;;;5024869;28;20190;-43
2021/10/04 06:57:03;;;;;;;1.77;1.63;;;12.90;99.90;;;;;;5025641;28;20277;-39
2021/10/04 06:59:29;;;;;;;2.20;1.17;;;12.90;99.90;;;;;;5025384;28;20325;-38
2021/10/04 07:01:56;;;;;;;2.17;1.00;;;12.90;99.90;;;;;;5020144;28;20445;-38
2021/10/04 07:04:21;;;;;;;1.20;1.10;;;12.90;99.90;;;;;;5023778;28;20277;-38
2021/10/04 07:06:47;;;;;;;1.93;1.17;;;13.00;99.90;;;;;;5025850;28;20944;-38
2021/10/04 07:09:13;;;;;;;1.47;1.13;;;13.00;99.90;;;;;;5025223;28;20657;-38
2021/10/04 07:11:38;;;;;;;1.87;1.17;;;13.00;99.90;;;;;;5025464;28;20240;-38
2021/10/04 07:14:04;;;;;;;1.37;1.10;;;13.00;99.90;;;;;;5024770;28;20281;-38
2021/10/04 07:16:30;;;;;;;2.87;1.00;;;13.10;99.90;;;;;;5013474;28;20653;-38
2021/10/04 07:18:55;;;;;;;3.43;1.50;;;13.10;99.90;;;;;;5025130;28;20205;-38
2021/10/04 07:21:21;;;;;;;1.40;1.00;;;13.10;99.90;;;;;;5027100;28;20677;-38
2021/10/04 07:23:47;;;;;;;1.53;0.90;;;13.20;99.90;;;;;;5040459;28;20260;-39
2021/10/04 07:26:13;;;;;;;2.37;1.03;;;13.20;99.90;;;;;;5040504;28;20578;-38
2021/10/04 07:28:39;;;;;;;2.00;1.00;;;13.30;99.90;;;;;;5044619;28;20198;-39
2021/10/04 07:31:05;;;;;;;1.80;1.00;;;13.30;99.90;;;;;;5026035;28;20444;-38
2021/10/04 07:33:31;;;;;;;1.33;1.23;;;13.40;99.90;;;;;;5022924;28;20417;-38
2021/10/04 07:35:57;;;;;;;1.90;1.10;;;13.30;99.90;;;;;;5028192;28;20524;-39
2021/10/04 07:38:24;;;;;;;3.23;1.07;;;13.40;99.90;;;;;;5028539;28;20248;-38
2021/10/04 07:40:50;;;;;;;1.17;1.07;;;13.40;99.90;;;;;;5028271;28;20551;-38
2021/10/04 07:43:16;;;;;;;2.20;1.10;;;13.40;99.90;;;;;;5027700;28;20496;-38
2021/10/04 07:45:42;;;;;;;1.77;1.27;;;13.40;99.90;;;;;;5025524;28;20520;-39
2021/10/04 07:48:07;;;;;;;1.80;1.00;;;13.40;99.90;;;;;;5023259;28;20179;-38
2021/10/04 07:50:34;;;;;;;1.50;1.37;;;13.50;99.90;;;;;;5028360;28;20449;-38
2021/10/04 07:53:00;;;;;;;1.60;1.20;;;13.50;99.90;;;;;;5026452;28;20187;-41
2021/10/04 07:55:26;;;;;;;4.47;1.30;;;13.50;99.90;;;;;;5028069;28;20448;-39
2021/10/04 07:57:52;;;;;;;1.40;1.07;;;13.50;99.90;;;;;;5027885;28;20583;-38
2021/10/04 08:00:19;;;;;;;2.10;1.27;;;13.60;99.90;;;;;;5026748;28;20213;-38
2021/10/04 08:02:46;;;;;;;1.23;1.03;;;13.60;99.90;;;;;;5020430;28;20341;-39
2021/10/04 08:05:12;;;;;;;2.00;1.00;;;13.60;99.90;;;;;;5027476;28;20764;-37
2021/10/04 08:07:38;;;;;;;3.33;1.27;;;13.70;99.90;;;;;;5027936;28;20439;-40
2021/10/04 08:10:05;;;;;;;2.03;1.13;;;13.60;99.90;;;;;;5027863;28;20425;-38
2021/10/04 08:12:32;;;;;;;3.10;1.10;;;13.70;99.90;;;;;;5027887;28;20520;-38
2021/10/04 08:14:57;;;;;;;3.10;1.13;;;13.70;99.90;;;;;;5026821;28;20476;-38
2021/10/04 08:17:24;;;;;;;1.40;1.23;;;13.70;99.90;;;;;;5017826;28;20468;-38
2021/10/04 08:19:50;;;;;;;1.67;1.00;;;13.80;99.90;;;;;;5029532;28;20571;-38
2021/10/04 08:22:17;;;;;;;2.03;1.33;;;13.80;99.90;;;;;;5047472;28;21026;-38
2021/10/04 08:24:43;;;;;;;3.90;1.27;;;13.90;99.90;;;;;;5040025;28;20440;-39
2021/10/04 08:27:09;;;;;;;1.10;1.00;;;13.90;99.90;;;;;;5047415;28;20904;-40
2021/10/04 08:29:35;;;;;;;1.57;1.10;;;13.90;99.90;;;;;;5047303;28;20434;-38
2021/10/04 08:32:02;;;;;;;1.90;1.10;;;14.00;99.90;;;;;;5021615;28;20681;-38
2021/10/04 08:34:28;;;;;;;3.07;1.20;;;14.10;99.90;;;;;;5024335;28;20417;-39
2021/10/04 08:36:54;;;;;;;1.97;1.10;;;14.10;99.90;;;;;;5027514;28;20439;-38
2021/10/04 08:39:19;;;;;;;4.20;1.10;;;14.20;99.90;;;;;;5027231;28;20202;-40
2021/10/04 08:41:45;;;;;;;1.43;1.23;;;14.20;99.90;;;;;;5027484;28;20193;-38
2021/10/04 08:44:13;;;;;;;2.37;0.97;;;14.20;99.90;;;;;;5026838;28;20204;-38
2021/10/04 08:46:42;;;;;;;3.13;1.30;;;14.30;99.90;;;;;;5018364;28;20191;-39
2021/10/04 08:49:09;;;;;;;4.97;1.40;;;14.20;99.90;;;;;;5022927;28;20420;-38
2021/10/04 08:51:36;;;;;;;2.90;1.67;;;14.20;99.90;;;;;;5026988;28;20788;-38
2021/10/04 08:54:05;;;;;;;7.73;1.30;;;14.20;99.90;;;;;;5026121;28;20421;-38
2021/10/04 08:56:31;;;;;;;3.57;1.20;;;14.20;99.90;;;;;;5027496;28;20435;-40
2021/10/04 08:58:57;;;;;;;4.70;1.20;;;14.20;99.90;;;;;;5026951;28;20417;-38
2021/10/04 09:01:24;;;;;;;2.27;1.23;;;14.30;99.90;;;;;;5020787;28;20446;-38
2021/10/04 09:04:02;;;;;;;1.40;1.30;;;14.30;99.90;;;;;;5025650;28;20869;-38
2021/10/04 09:06:33;;;;;;;2.73;1.50;;;14.30;99.90;;;;;;5026517;28;20421;-38
2021/10/04 09:09:03;;;;;;;2.20;1.07;;;14.30;99.90;;;;;;5026837;28;20784;-39
2021/10/04 09:11:36;;;;;;;3.20;1.10;;;14.40;99.90;;;;;;5026900;28;20555;-38
2021/10/04 09:14:08;;;;;;;2.23;1.13;;;14.50;99.90;;;;;;5026029;28;20417;-38
2021/10/04 09:16:57;;;;;;;3.60;1.40;;;14.50;99.90;;;;;;5021287;28;20720;-38
2021/10/04 09:19:27;;;;;;;1.30;1.10;;;14.60;99.90;;;;;;5022485;28;20955;-42
2021/10/04 09:22:15;;;;;;;2.73;1.40;;;14.70;99.90;;;;;;5028689;28;20425;-39
2021/10/04 09:25:00;;;;;;;3.80;1.20;;;14.80;99.90;;;;;;5025430;28;21088;-39
2021/10/04 09:27:30;;;;;;;4.77;1.60;;;14.90;99.90;;;;;;5026722;28;20472;-38
2021/10/04 09:29:57;;;;;;;3.23;1.10;;;15.00;99.90;;;;;;5026361;28;20506;-39
2021/10/04 09:32:29;;;;;;;2.00;1.30;;;15.00;99.90;;;;;;5015621;28;20449;-39
2021/10/04 09:35:11;;;;;;;6.63;1.80;;;15.10;99.90;;;;;;5025537;28;20413;-38
2021/10/04 09:37:37;;;;;;;4.03;1.20;;;15.10;99.90;;;;;;5026239;28;20725;-39
2021/10/04 09:40:03;;;;;;;2.57;1.17;;;15.10;99.90;;;;;;5024669;28;20464;-38
2021/10/04 09:42:38;;;;;;;2.70;1.00;;;15.30;99.90;;;;;;5026169;28;20182;-38
2021/10/04 09:45:05;;;;;;;1.97;1.33;;;15.30;99.90;;;;;;5025827;28;20428;-38
2021/10/04 09:47:33;;;;;;;2.50;1.37;;;15.40;99.90;;;;;;5014811;28;20989;-38
2021/10/04 09:49:59;;;;;;;1.30;1.17;;;15.50;99.90;;;;;;5024702;28;20421;-39
2021/10/04 09:52:33;;;;;;;2.40;1.20;;;15.70;99.90;;;;;;5025609;28;20825;-40
2021/10/04 09:55:00;;;;;;;2.77;1.40;;;15.80;99.90;;;;;;5025720;28;20186;-39
2021/10/04 09:57:25;;;;;;;2.37;1.27;;;15.80;99.90;;;;;;5023872;28;20460;-38
2021/10/04 09:59:51;;;;;;;2.73;1.20;;;15.90;99.90;;;;;;5025893;28;20491;-39
2021/10/04 10:02:18;;;;;;;1.33;1.00;;;16.10;99.90;;;;;;5020352;28;20190;-38
2021/10/04 10:04:46;;;;;;;5.80;1.47;;;16.10;99.90;;;;;;5025122;28;20186;-39
2021/10/04 10:07:13;;;;;;;1.20;1.10;;;16.10;99.90;;;;;;5025766;28;20495;-39
2021/10/04 10:09:41;;;;;;;3.93;0.80;;;16.20;99.90;;;;;;5025887;28;20449;-42
2021/10/04 10:12:08;;;;;;;1.73;1.30;;;16.30;99.90;;;;;;5025767;28;20498;-38
2021/10/04 10:14:43;;;;;;;3.80;1.30;;;16.40;99.90;;;;;;5025291;28;20428;-39
2021/10/04 10:17:17;;;;;;;1.43;0.93;;;16.50;99.90;;;;;;5017952;28;20425;-39
2021/10/04 10:19:45;;;;;;;1.83;1.07;;;16.30;99.90;;;;;;5021784;28;20492;-39
2021/10/04 10:22:16;;;;;;;3.03;0.90;;;16.20;99.90;;;;;;5029706;28;20812;-38
2021/10/04 10:24:43;;;;;;;2.93;1.50;;;16.10;99.90;;;;;;5024911;28;20471;-39
2021/10/04 10:27:10;;;;;;;1.70;1.20;;;16.10;99.90;;;;;;5025795;28;20432;-40
2021/10/04 10:29:36;;;;;;;1.20;1.10;;;16.10;99.90;;;;;;5025668;28;20428;-39
2021/10/04 10:32:01;;;;;;;3.13;1.10;;;16.00;99.90;;;;;;5019893;28;20537;-38
2021/10/04 10:34:30;;;;;;;1.90;1.27;;;16.00;99.90;;;;;;5021604;28;20486;-39
2021/10/04 10:37:03;;;;;;;2.80;1.13;;;16.00;99.90;;;;;;5025855;28;20190;-38
2021/10/04 10:39:45;;;;;;;5.37;1.30;;;16.00;99.90;;;;;;5025330;28;20484;-41
2021/10/04 10:42:14;;;;;;;1.70;1.07;;;16.20;99.90;;;;;;5025187;28;20424;-39
2021/10/04 10:44:57;;;;;;;1.93;0.83;;;16.40;99.90;;;;;;5024803;28;20420;-40
2021/10/04 10:47:37;;;;;;;6.13;1.30;;;16.50;99.90;;;;;;5018971;28;20449;-38
2021/10/04 10:50:27;;;;;;;2.60;1.30;;;16.60;99.90;;;;;;5020863;28;20408;-40
2021/10/04 10:52:56;;;;;;;2.23;1.27;;;16.60;99.90;;;;;;5024053;28;20436;-39
2021/10/04 10:55:21;;;;;;;1.63;1.37;;;16.60;99.90;;;;;;5025203;28;20449;-38
2021/10/04 10:57:56;;;;;;;5.30;1.20;;;16.60;99.90;;;;;;5025264;28;20491;-39
2021/10/04 11:00:32;;;;;;;1.40;1.20;;;16.60;99.90;;;;;;5025220;28;20300;-38
2021/10/04 11:03:27;;;;;;;1.10;1.00;;;16.60;99.90;;;;;;5021057;28;20943;-39
2021/10/04 11:06:02;;;;;;;1.63;1.23;;;16.60;99.90;;;;;;5020346;28;20483;-38
2021/10/04 11:08:28;;;;;;;2.33;1.43;;;16.50;99.90;;;;;;5026402;28;20416;-38
2021/10/04 11:10:55;;;;;;;1.67;1.20;;;16.60;99.90;;;;;;5028967;28;20956;-39
2021/10/04 11:13:35;;;;;;;1.40;1.20;;;16.60;99.90;;;;;;5028502;28;20258;-39
2021/10/04 11:16:04;;;;;;;2.77;1.17;;;16.70;99.90;;;;;;5029460;28;20520;-38
2021/10/04 11:18:38;;;;;;;3.60;1.10;;;16.80;99.90;;;;;;5017177;28;20855;-39
2021/10/04 11:21:08;;;;;;;1.57;1.00;;;16.70;99.90;;;;;;5033273;28;20791;-39
2021/10/04 11:23:39;;;;;;;2.60;1.30;;;16.70;99.90;;;;;;5027977;28;20428;-39
2021/10/04 11:26:07;;;;;;;3.23;1.50;;;16.80;99.90;;;;;;5028660;28;20633;-39
2021/10/04 11:28:33;;;;;;;5.37;1.60;;;16.80;99.90;;;;;;5015129;28;20538;-39
2021/10/04 11:31:08;;;;;;;3.00;1.43;;;17.00;99.90;;;;;;5028716;28;20453;-38
2021/10/04 11:34:05;;;;;;;1.33;1.00;;;17.20;99.90;;;;;;5017452;28;20194;-39
2021/10/04 11:36:40;;;;;;;2.57;1.00;;;17.50;99.90;;;;;;5016544;28;20444;-38
2021/10/04 11:39:08;;;;;;;2.50;1.43;;;17.60;99.90;;;;;;5028553;28;20425;-39
2021/10/04 11:41:41;;;;;;;2.17;1.10;;;17.60;99.90;;;;;;5028538;28;20465;-40
2021/10/04 11:44:10;;;;;;;3.77;1.00;;;17.70;99.90;;;;;;5027661;28;20444;-38
2021/10/04 11:47:02;;;;;;;1.80;1.00;;;17.70;99.90;;;;;;5026933;28;20428;-39
2021/10/04 11:49:41;;;;;;;2.00;0.93;;;17.80;99.90;;;;;;5020183;28;20955;-39
2021/10/04 11:52:15;;;;;;;3.33;1.10;;;17.80;99.90;;;;;;5028470;28;20417;-38
2021/10/04 11:54:46;;;;;;;1.20;0.90;;;17.80;99.90;;;;;;5014488;28;20505;-39
2021/10/04 11:57:32;;;;;;;1.93;1.60;;;17.90;99.90;;;;;;5028535;28;20445;-39
2021/10/04 12:00:02;;;;;;;1.17;1.07;;;18.00;99.90;;;;;;5028105;28;21006;-39
2021/10/04 12:02:31;;;;;;;1.90;1.00;;;18.00;99.90;;;;;;5024108;28;20438;-38
2021/10/04 12:05:24;;;;;;;2.07;1.00;;;18.00;99.90;;;;;;5022787;28;20425;-39
2021/10/04 12:08:13;;;;;;;1.37;1.10;;;18.00;99.90;;;;;;5021148;28;20409;-39
2021/10/04 12:10:54;;;;;;;2.93;1.17;;;17.90;99.90;;;;;;5028320;28;20421;-39
2021/10/04 12:13:25;;;;;;;2.17;1.00;;;17.80;99.90;;;;;;5027360;28;20424;-38
2021/10/04 12:15:53;;;;;;;2.57;1.10;;;17.90;99.90;;;;;;5028049;28;20866;-40
2021/10/04 12:18:29;;;;;;;3.27;1.10;;;18.00;99.90;;;;;;5020944;28;20817;-39
2021/10/04 12:21:21;;;;;;;1.60;1.00;;;17.90;99.90;;;;;;5026689;28;20495;-38
2021/10/04 12:24:12;;;;;;;1.13;0.80;;;17.90;99.90;;;;;;5016117;28;21097;-38
2021/10/04 12:26:56;;;;;;;2.40;1.07;;;17.80;99.90;;;;;;5027065;28;20421;-38
2021/10/04 12:29:38;;;;;;;2.30;1.20;;;17.80;99.90;;;;;;5028102;28;20429;-39
2021/10/04 12:32:21;;;;;;;2.07;1.40;;;17.80;99.90;;;;;;5027628;28;20449;-38
2021/10/04 12:35:08;;;;;;;3.90;1.30;;;17.90;99.90;;;;;;5013250;28;20428;-38
2021/10/04 12:37:38;;;;;;;3.53;1.43;;;18.10;99.90;;;;;;5027558;28;20777;-38
2021/10/04 12:40:24;;;;;;;1.40;1.20;;;18.00;99.90;;;;;;5027653;28;20889;-38
2021/10/04 12:43:01;;;;;;;3.97;1.10;;;17.90;99.90;;;;;;5026814;28;20881;-40
2021/10/04 12:45:27;;;;;;;4.50;1.20;;;17.80;99.90;;;;;;5027410;28;20661;-39
2021/10/04 12:48:02;;;;;;;2.13;1.20;;;17.80;99.90;;;;;;5020609;28;20512;-38
2021/10/04 12:50:32;;;;;;;3.60;0.80;;;17.90;99.90;;;;;;5023509;28;20424;-38
2021/10/04 12:53:10;;;;;;;1.23;1.13;;;18.00;99.90;;;;;;5026338;28;20487;-39